Buxton, Maine
Current Conditions -  °F | °C
As of 8:51 AM on Friday 19 Dec 2014 (Local Time) from KPWM Reporting Station
Scattered Clouds Scattered Clouds  
Wind Chill: 29°   Ceiling: Unl
Heat Index: 35°   Visibility: 10mi
Dew Point: 24°   Wind: 7mph
Humidity: 64%   Direction: 350°N
Pressure: 29.92"   Gusts: NA
Location:  43.6671°N, 70.5709°W
Report Text: KPWM 191351Z 35006KT 10SM FEW030 SCT055 02/M04 A2992 RMK AO2 SLP132 T00171044
Loading
Personal Weather Stations






























Interactive Weather Map New forecast layout! Learn more

10-Day Weather Forecast

Advertisements
Track Severe Weather on mobile